Time;durP1;ratioP1;P1;durP2;ratioP2;P2;SDS_P1;SDS_P2;PMS_P1;PMS_P2;Temp;Humidity;BMP_temperature;BMP_pressure;BME280_temperature;BME280_humidity;BME280_pressure;Samples;Min_cycle;Max_cycle;Signal;HPM_P1;HPM_P2
2023/07/09 00:01:38;;;;;;;;;;;;;;;19.86;62.90;101336.72;5123622;27;1495;-79
2023/07/09 00:04:04;;;;;;;;;;;;;;;19.86;62.66;101342.19;5125780;27;1112;-78
2023/07/09 00:06:31;;;;;;;;;;;;;;;19.86;62.92;101346.81;5126114;27;1500;-79
2023/07/09 00:08:59;;;;;;;;;;;;;;;19.85;62.64;101350.63;5123336;27;1926;-79
2023/07/09 00:11:26;;;;;;;;;;;;;;;19.84;62.45;101354.47;5124178;27;1696;-79
2023/07/09 00:13:52;;;;;;;;;;;;;;;19.84;62.61;101340.78;5123913;27;1453;-79
2023/07/09 00:16:19;;;;;;;;;;;;;;;19.83;62.60;101344.63;5121600;27;1534;-79
2023/07/09 00:21:35;;;;;;;;;;;;;;;19.82;62.83;101345.69;5121647;27;1616;-80
2023/07/09 00:24:04;;;;;;;;;;;;;;;19.81;62.60;101339.41;5111699;27;1719;-80
2023/07/09 00:26:31;;;;;;;;;;;;;;;19.81;62.37;101344.88;5109772;27;1363;-80
2023/07/09 00:28:57;;;;;;;;;;;;;;;19.80;62.54;101343.22;5130856;27;1984;-80
2023/07/09 00:31:24;;;;;;;;;;;;;;;19.79;62.71;101352.50;5130501;27;1788;-78
2023/07/09 00:33:50;;;;;;;;;;;;;;;19.78;62.41;101347.31;5124687;27;1882;-80
2023/07/09 00:36:17;;;;;;;;;;;;;;;19.77;62.68;101343.75;5111070;27;1674;-82
2023/07/09 00:38:48;;;;;;;;;;;;;;;19.78;62.52;101347.31;5138295;27;1937;-80
2023/07/09 00:41:17;;;;;;;;;;;;;;;19.76;62.33;101346.75;5099374;27;1396;-79
2023/07/09 00:43:43;;;;;;;;;;;;;;;19.76;62.41;101354.94;5108433;27;1422;-80
2023/07/09 00:46:10;;;;;;;;;;;;;;;19.74;62.31;101353.31;5129689;27;1671;-80
2023/07/09 00:48:37;;;;;;;;;;;;;;;19.73;62.52;101354.38;5127925;27;1965;-79
2023/07/09 00:51:03;;;;;;;;;;;;;;;19.73;62.30;101353.53;5141443;27;1612;-78
2023/07/09 00:53:30;;;;;;;;;;;;;;;19.71;62.56;101348.34;5122682;27;1556;-79
2023/07/09 00:55:57;;;;;;;;;;;;;;;19.70;62.18;101343.97;5144429;27;1479;-79
2023/07/09 00:58:27;;;;;;;;;;;;;;;19.70;62.28;101351.34;5145811;27;1204;-78
2023/07/09 01:00:54;;;;;;;;;;;;;;;19.69;62.54;101355.97;5143005;27;1566;-78
2023/07/09 01:03:20;;;;;;;;;;;;;;;19.67;62.09;101347.22;5126567;27;1273;-80
2023/07/09 01:05:51;;;;;;;;;;;;;;;19.67;62.33;101346.41;5143084;27;1280;-79
2023/07/09 01:08:17;;;;;;;;;;;;;;;19.66;62.41;101352.97;5143284;27;1969;-78
2023/07/09 01:10:44;;;;;;;;;;;;;;;19.64;62.54;101344.16;5122574;27;1558;-79
2023/07/09 01:13:11;;;;;;;;;;;;;;;19.63;62.41;101343.34;5145196;27;1512;-79
2023/07/09 01:15:38;;;;;;;;;;;;;;;19.62;62.00;101347.16;5145045;27;1605;-78
2023/07/09 01:18:04;;;;;;;;;;;;;;;19.61;62.37;101350.16;5144445;27;1985;-79
2023/07/09 01:20:31;;;;;;;;;;;;;;;19.60;62.41;101337.56;5142055;27;1249;-79
2023/07/09 01:23:00;;;;;;;;;;;;;;;19.59;62.01;101338.63;5123421;27;1299;-79
2023/07/09 01:25:27;;;;;;;;;;;;;;;19.58;62.21;101343.28;5123511;27;1523;-79
2023/07/09 01:27:54;;;;;;;;;;;;;;;19.57;62.29;101343.56;5141351;27;1909;-79
2023/07/09 01:30:26;;;;;;;;;;;;;;;19.57;62.30;101344.38;5124431;27;1676;-79
2023/07/09 01:32:53;;;;;;;;;;;;;;;19.56;62.29;101350.09;5143258;27;1678;-80
2023/07/09 01:35:20;;;;;;;;;;;;;;;19.56;62.27;101347.38;5144994;27;1457;-77
2023/07/09 01:37:46;;;;;;;;;;;;;;;19.55;62.06;101353.91;5129415;27;1415;-78
2023/07/09 01:40:13;;;;;;;;;;;;;;;19.53;62.21;101348.72;5141806;27;1453;-81
2023/07/09 01:42:43;;;;;;;;;;;;;;;19.54;61.94;101355.84;5142149;27;1674;-80
2023/07/09 01:45:11;;;;;;;;;;;;;;;19.53;61.92;101351.47;5129465;27;1567;-80
2023/07/09 01:47:37;;;;;;;;;;;;;;;19.50;62.02;101347.34;5142271;27;1859;-79
2023/07/09 01:50:04;;;;;;;;;;;;;;;19.51;61.98;101348.97;5142774;27;1980;-78
2023/07/09 01:52:31;;;;;;;;;;;;;;;19.50;61.76;101351.94;5141999;27;1501;-78
2023/07/09 01:54:57;;;;;;;;;;;;;;;19.49;62.23;101353.06;5142637;27;1617;-79
2023/07/09 01:57:24;;;;;;;;;;;;;;;19.47;61.85;101347.88;5142155;27;1575;-78
2023/07/09 01:59:50;;;;;;;;;;;;;;;19.48;62.03;101354.13;5141891;27;1291;-79
2023/07/09 02:02:19;;;;;;;;;;;;;;;19.48;62.11;101354.13;5140880;27;1671;-78
2023/07/09 02:04:46;;;;;;;;;;;;;;;19.46;61.88;101348.09;5142501;27;1293;-78
2023/07/09 02:07:12;;;;;;;;;;;;;;;19.45;62.18;101346.47;5144664;27;1282;-78
2023/07/09 02:09:39;;;;;;;;;;;;;;;19.44;62.08;101348.38;5143381;27;1910;-79
2023/07/09 02:12:06;;;;;;;;;;;;;;;19.43;61.63;101346.72;5125559;27;1718;-79
2023/07/09 02:14:32;;;;;;;;;;;;;;;19.42;61.55;101345.06;5131956;27;1325;-81
2023/07/09 02:16:59;;;;;;;;;;;;;;;19.42;61.87;101347.00;5141564;27;1501;-79
2023/07/09 02:19:25;;;;;;;;;;;;;;;19.41;61.64;101342.59;5145167;27;1530;-80
2023/07/09 02:21:52;;;;;;;;;;;;;;;19.39;62.00;101340.13;5125852;27;1404;-80
2023/07/09 02:24:18;;;;;;;;;;;;;;;19.40;61.98;101340.94;5142339;27;1522;-81
2023/07/09 02:26:45;;;;;;;;;;;;;;;19.39;61.65;101340.13;5126409;27;1604;-78
2023/07/09 02:29:15;;;;;;;;;;;;;;;19.38;61.95;101348.56;5143455;27;2035;-79
2023/07/09 02:31:41;;;;;;;;;;;;;;;19.35;61.57;101347.19;5140479;27;1555;-81
2023/07/09 02:34:08;;;;;;;;;;;;;;;19.36;61.78;101354.31;5141776;27;1538;-81
2023/07/09 02:36:34;;;;;;;;;;;;;;;19.35;61.72;101343.63;5125107;27;1500;-80
2023/07/09 02:39:01;;;;;;;;;;;;;;;19.34;61.76;101348.28;5141605;27;1573;-80
2023/07/09 02:41:28;;;;;;;;;;;;;;;19.33;61.86;101351.28;5141314;27;1669;-80
2023/07/09 02:43:54;;;;;;;;;;;;;;;19.33;61.63;101356.75;5137568;27;1506;-81
2023/07/09 02:46:21;;;;;;;;;;;;;;;19.31;61.37;101348.78;5141061;27;1562;-81
2023/07/09 02:48:50;;;;;;;;;;;;;;;19.31;61.57;101351.53;5140083;27;1890;-82
2023/07/09 02:51:17;;;;;;;;;;;;;;;19.29;61.50;101350.94;5130406;27;1567;-80
2023/07/09 02:53:43;;;;;;;;;;;;;;;19.29;61.44;101353.69;5130421;27;1587;-80
2023/07/09 02:56:10;;;;;;;;;;;;;;;19.28;61.40;101363.78;5142257;27;1556;-80
2023/07/09 02:58:37;;;;;;;;;;;;;;;19.27;61.69;101361.31;5139101;27;1560;-81
2023/07/09 03:01:05;;;;;;;;;;;;;;;19.27;61.54;101361.31;5124173;27;1427;-82
2023/07/09 03:03:31;;;;;;;;;;;;;;;19.26;61.62;101362.38;5139672;27;1738;-83
2023/07/09 03:05:58;;;;;;;;;;;;;;;19.25;61.55;101355.28;5141978;27;1560;-79
2023/07/09 03:08:24;;;;;;;;;;;;;;;19.23;61.50;101352.81;5123182;27;1969;-81
2023/07/09 03:10:51;;;;;;;;;;;;;;;19.24;61.66;101353.66;5140636;27;1601;-81
2023/07/09 03:13:17;;;;;;;;;;;;;;;19.22;61.34;101353.06;5141073;27;1690;-81
2023/07/09 03:15:44;;;;;;;;;;;;;;;19.21;61.18;101355.00;5140985;27;1538;-82
2023/07/09 03:18:10;;;;;;;;;;;;;;;19.21;61.67;101359.63;5132247;27;1292;-81
2023/07/09 03:20:38;;;;;;;;;;;;;;;19.19;61.37;101362.59;5121015;27;1599;-82
2023/07/09 03:23:05;;;;;;;;;;;;;;;19.20;61.55;101360.69;5140792;27;1246;-82
2023/07/09 03:25:31;;;;;;;;;;;;;;;19.19;61.53;101362.59;5127835;27;1570;-82
2023/07/09 03:27:58;;;;;;;;;;;;;;;19.17;61.65;101361.22;5142126;27;1283;-82
2023/07/09 03:30:24;;;;;;;;;;;;;;;19.17;61.09;101367.50;5124136;27;1906;-82
2023/07/09 03:32:51;;;;;;;;;;;;;;;19.16;61.37;101363.13;5126030;27;1408;-82
2023/07/09 03:35:17;;;;;;;;;;;;;;;19.16;61.10;101371.31;5142042;27;1183;-83
2023/07/09 03:37:44;;;;;;;;;;;;;;;19.16;61.11;101357.66;5124521;27;1629;-82
2023/07/09 03:40:11;;;;;;;;;;;;;;;19.15;61.08;101366.94;5121905;27;1577;-82
2023/07/09 03:42:37;;;;;;;;;;;;;;;19.14;61.40;101372.66;5142455;27;1183;-82
2023/07/09 03:45:03;;;;;;;;;;;;;;;19.12;61.00;101369.34;5128015;27;1662;-83
2023/07/09 03:47:30;;;;;;;;;;;;;;;19.11;61.11;101364.97;5126395;27;1665;-83
2023/07/09 03:49:57;;;;;;;;;;;;;;;19.11;61.10;101367.69;5144135;27;1922;-82
2023/07/09 03:52:23;;;;;;;;;;;;;;;19.10;61.10;101372.34;5137326;27;1597;-83
2023/07/09 03:54:50;;;;;;;;;;;;;;;19.10;61.35;101369.63;5117755;27;1655;-83
2023/07/09 03:57:17;;;;;;;;;;;;;;;19.11;61.24;101373.97;5126628;27;1545;-83
2023/07/09 03:59:43;;;;;;;;;;;;;;;19.09;61.19;101375.31;5122325;27;1669;-83
2023/07/09 04:02:10;;;;;;;;;;;;;;;19.08;60.95;101382.69;5112772;27;1653;-83
2023/07/09 04:04:36;;;;;;;;;;;;;;;19.08;60.95;101381.88;5141670;27;1374;-83
2023/07/09 04:07:03;;;;;;;;;;;;;;;19.07;60.95;101378.31;5144638;27;1385;-83
2023/07/09 04:09:30;;;;;;;;;;;;;;;19.08;61.24;101382.69;5144494;27;1969;-82
2023/07/09 04:12:02;;;;;;;;;;;;;;;19.07;61.11;101383.78;5143178;27;1560;-82
2023/07/09 04:14:29;;;;;;;;;;;;;;;19.05;60.84;101383.19;5124079;27;1567;-83
2023/07/09 04:16:57;;;;;;;;;;;;;;;19.05;60.74;101384.00;5142458;27;1877;-83
2023/07/09 04:19:24;;;;;;;;;;;;;;;19.04;60.84;101387.84;5123390;27;1730;-83
2023/07/09 04:21:50;;;;;;;;;;;;;;;19.04;60.93;101378.84;5132070;27;1581;-83
2023/07/09 04:24:17;;;;;;;;;;;;;;;19.05;60.91;101381.28;5144837;27;1700;-82
2023/07/09 04:26:43;;;;;;;;;;;;;;;19.03;60.67;101396.28;5144144;27;1589;-83
2023/07/09 04:29:10;;;;;;;;;;;;;;;19.01;60.76;101396.53;5127030;27;1922;-84
2023/07/09 04:31:37;;;;;;;;;;;;;;;19.01;60.78;101393.81;5143012;27;1511;-83
2023/07/09 04:34:03;;;;;;;;;;;;;;;19.00;60.70;101400.38;5141370;27;1511;-82
2023/07/09 04:36:31;;;;;;;;;;;;;;;19.02;60.92;101400.09;5143845;27;1523;-82
2023/07/09 04:38:57;;;;;;;;;;;;;;;19.01;60.58;101404.72;5124523;27;1617;-82
2023/07/09 04:41:24;;;;;;;;;;;;;;;19.01;60.43;101391.09;5122830;27;1524;-83
2023/07/09 04:43:50;;;;;;;;;;;;;;;18.99;60.64;101398.69;5119291;27;1855;-83
2023/07/09 04:46:17;;;;;;;;;;;;;;;19.00;60.66;101403.09;5111172;27;1723;-83
2023/07/09 04:48:46;;;;;;;;;;;;;;;19.00;60.57;101404.97;5111987;27;1965;-83
2023/07/09 04:51:12;;;;;;;;;;;;;;;19.01;60.53;101399.28;5122759;27;1519;-82
2023/07/09 04:53:39;;;;;;;;;;;;;;;19.00;60.36;101407.69;5120752;27;1727;-82
2023/07/09 04:56:05;;;;;;;;;;;;;;;18.98;60.64;101401.69;5122427;27;1628;-82
2023/07/09 04:58:32;;;;;;;;;;;;;;;19.04;60.30;101396.03;5111410;27;1540;-82
2023/07/09 05:00:59;;;;;;;;;;;;;;;19.01;60.44;101409.38;5115448;27;1818;-83
2023/07/09 05:03:25;;;;;;;;;;;;;;;18.97;60.82;101402.75;5124412;27;1606;-83
2023/07/09 05:05:52;;;;;;;;;;;;;;;18.96;60.52;101406.56;5142954;27;1708;-82
2023/07/09 05:08:19;;;;;;;;;;;;;;;18.95;60.43;101404.94;5143964;27;1552;-83
2023/07/09 05:10:46;;;;;;;;;;;;;;;18.94;60.50;101412.31;5141659;27;1918;-82
2023/07/09 05:13:12;;;;;;;;;;;;;;;18.97;60.38;101417.25;5143578;27;1261;-82
2023/07/09 05:15:39;;;;;;;;;;;;;;;18.95;60.30;101413.13;5140606;27;1766;-83
2023/07/09 05:18:05;;;;;;;;;;;;;;;18.94;60.21;101415.03;5124791;27;1369;-82
2023/07/09 05:20:32;;;;;;;;;;;;;;;18.94;60.63;101417.75;5140413;27;1565;-82
2023/07/09 05:22:58;;;;;;;;;;;;;;;18.94;60.27;101411.44;5140826;27;2392;-83
2023/07/09 05:25:25;;;;;;;;;;;;;;;18.93;60.36;101416.09;5141416;27;2614;-82
2023/07/09 05:27:51;;;;;;;;;;;;;;;18.93;60.32;101418.00;5143747;27;2049;-81
2023/07/09 05:30:18;;;;;;;;;;;;;;;18.91;60.18;101420.97;5142269;27;2637;-79
2023/07/09 05:32:45;;;;;;;;;;;;;;;18.91;60.09;101426.44;5132534;27;1545;-78
2023/07/09 05:35:12;;;;;;;;;;;;;;;18.91;60.54;101414.69;5141510;27;1537;-80
2023/07/09 05:37:38;;;;;;;;;;;;;;;18.91;60.23;101417.41;5144866;27;1550;-80
2023/07/09 05:40:05;;;;;;;;;;;;;;;18.90;60.36;101415.78;5140762;27;1536;-80
2023/07/09 05:42:32;;;;;;;;;;;;;;;18.89;60.28;101419.59;5135516;27;2832;-80
2023/07/09 05:44:58;;;;;;;;;;;;;;;18.88;60.15;101426.94;5136211;27;1337;-81
2023/07/09 05:47:25;;;;;;;;;;;;;;;18.88;60.19;101428.84;5144477;27;1522;-80
2023/07/09 05:49:51;;;;;;;;;;;;;;;18.88;60.06;101429.66;5123941;27;1909;-80
2023/07/09 05:52:18;;;;;;;;;;;;;;;18.87;60.45;101427.22;5126927;27;1270;-81
2023/07/09 05:54:45;;;;;;;;;;;;;;;18.85;60.58;101424.72;5127715;27;3119;-81
2023/07/09 05:57:11;;;;;;;;;;;;;;;18.86;60.38;101425.56;5130459;27;1567;-81
2023/07/09 05:59:38;;;;;;;;;;;;;;;18.86;60.27;101422.84;5143929;27;1652;-81
2023/07/09 06:02:04;;;;;;;;;;;;;;;18.86;60.33;101422.84;5146677;27;3066;-81
2023/07/09 06:04:31;;;;;;;;;;;;;;;18.84;60.19;101421.16;5125839;27;1341;-82
2023/07/09 06:06:58;;;;;;;;;;;;;;;18.84;60.35;101418.44;5135370;27;3037;-82
2023/07/09 06:09:24;;;;;;;;;;;;;;;18.84;60.25;101421.16;5137260;27;1960;-82
2023/07/09 06:11:52;;;;;;;;;;;;;;;18.84;60.31;101418.44;5129549;27;1707;-82
2023/07/09 06:14:19;;;;;;;;;;;;;;;18.84;60.32;101418.44;5144817;27;1688;-82
2023/07/09 06:16:45;;;;;;;;;;;;;;;18.84;60.05;101418.44;5120319;27;1526;-82
2023/07/09 06:19:12;;;;;;;;;;;;;;;18.84;59.99;101414.88;5143448;27;1259;-82
2023/07/09 06:21:38;;;;;;;;;;;;;;;18.84;60.20;101421.16;5142279;27;2787;-82
2023/07/09 06:24:05;;;;;;;;;;;;;;;18.86;59.99;101420.94;5140953;27;1731;-82
2023/07/09 06:26:31;;;;;;;;;;;;;;;18.85;60.23;101416.53;5134928;27;2355;-82
2023/07/09 06:29:01;;;;;;;;;;;;;;;18.86;60.11;101420.09;5133686;27;2879;-82
2023/07/09 06:31:28;;;;;;;;;;;;;;;18.87;59.87;101419.03;5126120;27;1634;-82
2023/07/09 06:33:54;;;;;;;;;;;;;;;18.88;60.07;101417.94;5148624;27;1383;-83
2023/07/09 06:36:20;;;;;;;;;;;;;;;18.89;60.04;101416.88;5130987;27;1531;-82
2023/07/09 06:38:47;;;;;;;;;;;;;;;18.88;60.04;101418.75;5139651;27;1511;-84
2023/07/09 06:41:14;;;;;;;;;;;;;;;18.87;59.89;101417.09;5134055;27;1571;-83
2023/07/09 06:43:40;;;;;;;;;;;;;;;18.89;59.76;101425.06;5143875;27;1518;-82
2023/07/09 06:46:07;;;;;;;;;;;;;;;18.88;59.98;101418.75;5135368;27;1565;-82
2023/07/09 06:48:33;;;;;;;;;;;;;;;18.91;60.01;101420.97;5119721;27;1490;-82
2023/07/09 06:51:00;;;;;;;;;;;;;;;18.91;59.67;101414.69;5139394;27;1905;-82
2023/07/09 06:53:26;;;;;;;;;;;;;;;18.93;59.69;101418.00;5140568;27;1636;-81
2023/07/09 06:55:55;;;;;;;;;;;;;;;18.95;59.89;101416.66;5120575;27;1806;-82
2023/07/09 06:58:21;;;;;;;;;;;;;;;18.94;59.57;101416.91;5141942;27;1221;-82
2023/07/09 07:00:48;;;;;;;;;;;;;;;18.96;59.51;101415.56;5140950;27;1584;-82
2023/07/09 07:03:15;;;;;;;;;;;;;;;18.97;59.58;101414.53;5140295;27;1458;-81
2023/07/09 07:05:42;;;;;;;;;;;;;;;18.98;59.48;101413.44;5139512;27;2828;-83
2023/07/09 07:08:08;;;;;;;;;;;;;;;19.00;59.54;101416.75;5141106;27;2498;-82
2023/07/09 07:10:35;;;;;;;;;;;;;;;19.00;59.50;101419.47;5141610;27;2054;-82
2023/07/09 07:13:01;;;;;;;;;;;;;;;19.04;59.21;101425.25;5130147;27;1686;-82
2023/07/09 07:15:28;;;;;;;;;;;;;;;19.04;59.21;101419.78;5142676;27;1479;-82
2023/07/09 07:17:55;;;;;;;;;;;;;;;19.04;59.27;101425.25;5143688;27;1421;-81
2023/07/09 07:20:21;;;;;;;;;;;;;;;19.02;59.24;101420.00;5143065;27;1597;-81
2023/07/09 07:22:49;;;;;;;;;;;;;;;19.05;59.24;101421.41;5131613;27;2027;-81
2023/07/09 07:25:16;;;;;;;;;;;;;;;19.06;59.11;101420.34;5144313;27;1373;-82
2023/07/09 07:27:49;;;;;;;;;;;;;;;19.08;59.27;101420.91;5127887;27;1710;-82
2023/07/09 07:30:16;;;;;;;;;;;;;;;19.08;59.02;101414.63;5144242;27;1913;-82
2023/07/09 07:32:42;;;;;;;;;;;;;;;19.10;58.92;101410.56;5145851;27;1759;-82
2023/07/09 07:35:09;;;;;;;;;;;;;;;19.10;59.21;101415.19;5145357;27;1624;-82
2023/07/09 07:37:35;;;;;;;;;;;;;;;19.11;58.83;101408.66;5143857;27;1799;-82
2023/07/09 07:40:04;;;;;;;;;;;;;;;19.12;58.88;101413.03;5127033;27;1323;-83
2023/07/09 07:42:32;;;;;;;;;;;;;;;19.14;59.05;101422.59;5146536;27;1791;-83
2023/07/09 07:45:02;;;;;;;;;;;;;;;19.18;58.73;101420.22;5126132;27;1198;-82
2023/07/09 07:47:29;;;;;;;;;;;;;;;19.17;58.85;101413.09;5138930;27;1592;-82
2023/07/09 07:49:56;;;;;;;;;;;;;;;19.20;58.44;101412.56;5144792;27;1917;-83
2023/07/09 07:52:22;;;;;;;;;;;;;;;19.20;58.73;101418.03;5132713;27;1608;-83
2023/07/09 07:54:49;;;;;;;;;;;;;;;19.19;58.82;101419.94;5127574;27;1535;-82
2023/07/09 07:57:15;;;;;;;;;;;;;;;19.21;58.77;101408.78;5126333;27;1583;-82
2023/07/09 07:59:42;;;;;;;;;;;;;;;19.22;58.41;101413.97;5144902;27;1323;-82
2023/07/09 08:02:08;;;;;;;;;;;;;;;19.22;58.85;101400.31;5124806;27;1550;-82
2023/07/09 08:04:35;;;;;;;;;;;;;;;19.22;58.58;101403.03;5145521;27;1135;-82
2023/07/09 08:07:01;;;;;;;;;;;;;;;19.23;58.49;101396.50;5142423;27;1650;-82
2023/07/09 08:09:29;;;;;;;;;;;;;;;19.22;58.56;101400.31;5144201;27;1570;-83
2023/07/09 08:11:55;;;;;;;;;;;;;;;19.23;58.46;101395.69;5124255;27;1788;-82
2023/07/09 08:14:22;;;;;;;;;;;;;;;19.22;58.86;101397.59;5145309;27;1147;-82
2023/07/09 08:16:49;;;;;;;;;;;;;;;19.20;58.82;101396.19;5144541;27;1708;-82
2023/07/09 08:19:15;;;;;;;;;;;;;;;19.20;58.85;101396.19;5140442;27;1551;-82
2023/07/09 08:21:42;;;;;;;;;;;;;;;19.21;58.87;101395.13;5144985;27;1641;-82
2023/07/09 08:24:08;;;;;;;;;;;;;;;19.22;58.54;101394.84;5143780;27;1589;-82
2023/07/09 08:26:37;;;;;;;;;;;;;;;19.24;58.82;101394.63;5144246;27;1646;-82
2023/07/09 08:29:06;;;;;;;;;;;;;;;19.21;58.87;101395.94;5145005;27;1227;-83
2023/07/09 08:31:32;;;;;;;;;;;;;;;19.23;58.65;101392.94;5133185;27;1918;-83
2023/07/09 08:33:59;;;;;;;;;;;;;;;19.21;58.99;101389.66;5124792;27;1627;-83
2023/07/09 08:36:26;;;;;;;;;;;;;;;19.20;58.83;101396.19;5127921;27;1592;-84
2023/07/09 08:38:58;;;;;;;;;;;;;;;19.18;59.13;101391.00;5132220;27;1609;-83
2023/07/09 08:41:24;;;;;;;;;;;;;;;19.18;59.05;101385.53;5121630;27;1657;-83
2023/07/09 08:43:51;;;;;;;;;;;;;;;19.18;59.15;101390.19;5127168;27;1271;-82
2023/07/09 08:46:18;;;;;;;;;;;;;;;19.17;59.18;101396.69;5131918;27;1736;-83
2023/07/09 08:48:45;;;;;;;;;;;;;;;19.19;59.01;101394.56;5143364;27;1242;-82
2023/07/09 08:51:11;;;;;;;;;;;;;;;19.16;58.99;101384.97;5142772;27;1909;-81
2023/07/09 08:53:38;;;;;;;;;;;;;;;19.16;59.14;101387.69;5139347;27;1579;-82
2023/07/09 08:56:05;;;;;;;;;;;;;;;19.16;59.17;101393.16;5125852;27;1441;-81
2023/07/09 08:58:32;;;;;;;;;;;;;;;19.15;59.16;101386.06;5142622;27;1581;-81
2023/07/09 09:00:58;;;;;;;;;;;;;;;19.16;59.04;101392.34;5125956;27;1554;-84
2023/07/09 09:03:25;;;;;;;;;;;;;;;19.15;59.22;101390.66;5133175;27;1626;-83
2023/07/09 09:05:52;;;;;;;;;;;;;;;19.16;59.09;101395.06;5126639;27;1558;-83
2023/07/09 09:08:18;;;;;;;;;;;;;;;19.14;59.10;101389.84;5144061;27;1261;-83
2023/07/09 09:10:45;;;;;;;;;;;;;;;19.14;59.39;101391.75;5144649;27;1906;-82
2023/07/09 09:13:12;;;;;;;;;;;;;;;19.15;59.55;101382.47;5144969;27;1332;-81
2023/07/09 09:15:38;;;;;;;;;;;;;;;19.14;59.33;101383.56;5143019;27;1662;-81
2023/07/09 09:18:05;;;;;;;;;;;;;;;19.14;59.25;101384.38;5142500;27;1166;-82
2023/07/09 09:20:31;;;;;;;;;;;;;;;19.14;59.61;101383.56;5127002;27;1525;-82
2023/07/09 09:22:58;;;;;;;;;;;;;;;19.15;59.44;101383.31;5125609;27;1507;-82
2023/07/09 09:25:25;;;;;;;;;;;;;;;19.15;59.36;101385.22;5132744;27;1786;-83
2023/07/09 09:27:51;;;;;;;;;;;;;;;19.14;59.45;101378.09;5111591;27;1203;-82
2023/07/09 09:30:18;;;;;;;;;;;;;;;19.17;59.21;101383.88;5143175;27;1921;-82
2023/07/09 09:32:44;;;;;;;;;;;;;;;19.16;59.39;101384.16;5125881;27;1341;-82
2023/07/09 09:35:11;;;;;;;;;;;;;;;19.19;59.26;101383.63;5123606;27;2694;-82
2023/07/09 09:37:37;;;;;;;;;;;;;;;19.17;59.24;101381.13;5125482;27;1657;-82
2023/07/09 09:40:07;;;;;;;;;;;;;;;19.20;59.37;101374.34;5145054;27;1216;-82
2023/07/09 09:42:34;;;;;;;;;;;;;;;19.19;59.31;101379.00;5123613;27;2724;-82
2023/07/09 09:45:00;;;;;;;;;;;;;;;19.20;59.53;101375.16;5125278;27;4106;-82
2023/07/09 09:47:27;;;;;;;;;;;;;;;19.20;59.49;101375.16;5119695;27;5046;-82
2023/07/09 09:49:54;;;;;;;;;;;;;;;19.21;59.73;101368.63;5090136;27;4635;-82
2023/07/09 09:52:21;;;;;;;;;;;;;;;19.23;59.35;101371.91;5117582;27;3421;-83
2023/07/09 09:54:48;;;;;;;;;;;;;;;19.22;59.48;101372.19;5121708;27;3607;-82
2023/07/09 09:57:14;;;;;;;;;;;;;;;19.25;59.38;101366.22;5112743;27;1828;-82
2023/07/09 09:59:44;;;;;;;;;;;;;;;19.27;59.51;101366.78;5124662;27;5115;-82
2023/07/09 10:02:11;;;;;;;;;;;;;;;19.26;59.60;101368.66;5141022;27;4408;-81
2023/07/09 10:04:37;;;;;;;;;;;;;;;19.26;59.41;101359.66;5143081;27;1424;-82
2023/07/09 10:07:04;;;;;;;;;;;;;;;19.26;59.73;101352.28;5143302;27;1253;-82
2023/07/09 10:09:31;;;;;;;;;;;;;;;19.27;59.30;101356.69;5142908;27;1627;-82
2023/07/09 10:11:58;;;;;;;;;;;;;;;19.28;59.52;101358.31;5143002;27;1909;-82
2023/07/09 10:14:24;;;;;;;;;;;;;;;19.29;59.71;101356.41;5124332;27;1672;-82
2023/07/09 10:16:51;;;;;;;;;;;;;;;19.31;59.89;101364.34;5125261;27;2998;-82
2023/07/09 10:19:17;;;;;;;;;;;;;;;19.31;59.52;101353.44;5139449;27;1516;-82
2023/07/09 10:21:44;;;;;;;;;;;;;;;19.32;59.43;101355.88;5113765;27;1398;-82
2023/07/09 10:24:10;;;;;;;;;;;;;;;19.33;59.65;101356.75;5134897;27;1696;-83
2023/07/09 10:26:37;;;;;;;;;;;;;;;19.33;59.47;101356.75;5140058;27;5480;-82
2023/07/09 10:29:03;;;;;;;;;;;;;;;19.33;59.99;101357.56;5141023;27;4294;-82
2023/07/09 10:31:31;;;;;;;;;;;;;;;19.34;59.43;101375.59;5142995;27;3087;-82
2023/07/09 10:33:57;;;;;;;;;;;;;;;19.35;60.04;101357.28;5118834;27;1419;-82
2023/07/09 10:36:24;;;;;;;;;;;;;;;19.37;59.60;101349.66;5124753;27;2165;-83
2023/07/09 10:38:51;;;;;;;;;;;;;;;19.37;59.84;101353.22;5142109;27;1185;-83
2023/07/09 10:41:18;;;;;;;;;;;;;;;19.37;59.74;101353.22;5125436;27;1401;-83
2023/07/09 10:43:47;;;;;;;;;;;;;;;19.40;59.75;101349.16;5141975;27;3261;-82
2023/07/09 10:46:14;;;;;;;;;;;;;;;19.41;59.81;101354.38;5141371;27;1771;-83
2023/07/09 10:48:40;;;;;;;;;;;;;;;19.42;59.90;101350.53;5124345;27;1377;-83
2023/07/09 10:51:07;;;;;;;;;;;;;;;19.43;59.99;101348.63;5120756;27;1905;-83
2023/07/09 10:53:33;;;;;;;;;;;;;;;19.44;59.73;101342.06;5151883;27;1270;-82
2023/07/09 10:56:00;;;;;;;;;;;;;;;19.43;60.05;101343.97;5127275;27;1178;-82
2023/07/09 10:58:27;;;;;;;;;;;;;;;19.44;59.95;101342.91;5120846;27;2100;-81
2023/07/09 11:00:53;;;;;;;;;;;;;;;19.45;60.04;101341.00;5114244;27;2236;-84
2023/07/09 11:03:23;;;;;;;;;;;;;;;19.47;59.81;101341.53;5125970;27;1443;-83
2023/07/09 11:05:49;;;;;;;;;;;;;;;19.48;59.95;101345.94;5114637;27;1663;-82
2023/07/09 11:08:16;;;;;;;;;;;;;;;19.48;59.97;101338.56;5122792;27;1609;-82
2023/07/09 11:10:42;;;;;;;;;;;;;;;19.49;59.94;101337.47;5112266;27;1913;-82
2023/07/09 11:13:09;;;;;;;;;;;;;;;19.51;60.01;101334.50;5124855;27;1318;-82
2023/07/09 11:15:35;;;;;;;;;;;;;;;19.55;60.04;101337.53;5124151;27;1630;-81
2023/07/09 11:18:02;;;;;;;;;;;;;;;19.56;60.16;101344.63;5125574;27;1731;-80
2023/07/09 11:20:29;;;;;;;;;;;;;;;19.56;60.14;101330.97;5114983;27;2395;-82
2023/07/09 11:22:55;;;;;;;;;;;;;;;19.55;60.30;101332.06;5122180;27;1446;-81
2023/07/09 11:25:22;;;;;;;;;;;;;;;19.56;60.22;101331.81;5121278;27;4830;-82
2023/07/09 11:27:52;;;;;;;;;;;;;;;19.57;60.29;101327.16;5105141;27;4069;-81
2023/07/09 11:30:18;;;;;;;;;;;;;;;19.57;60.47;101329.91;5122378;27;1473;-79
2023/07/09 11:32:45;;;;;;;;;;;;;;;19.59;60.43;101331.28;5122977;27;3748;-82
2023/07/09 11:35:12;;;;;;;;;;;;;;;19.58;60.23;101321.44;5122814;27;2103;-81
2023/07/09 11:37:38;;;;;;;;;;;;;;;19.63;60.50;101328.84;5121283;27;2039;-81
2023/07/09 11:40:05;;;;;;;;;;;;;;;19.62;60.60;101319.84;5123983;27;1338;-81
2023/07/09 11:42:31;;;;;;;;;;;;;;;19.62;60.48;101317.09;5123873;27;1706;-81
2023/07/09 11:44:58;;;;;;;;;;;;;;;19.64;60.59;101308.63;5121882;27;3098;-80
2023/07/09 11:47:25;;;;;;;;;;;;;;;19.65;60.51;101315.78;5122402;27;1646;-81
2023/07/09 11:49:51;;;;;;;;;;;;;;;19.67;60.39;101316.34;5113396;27;1447;-80
2023/07/09 11:52:18;;;;;;;;;;;;;;;19.67;60.75;101308.97;5124021;27;1901;-80
2023/07/09 11:54:44;;;;;;;;;;;;;;;19.71;60.70;101309.28;5107206;27;1440;-79
2023/07/09 11:57:11;;;;;;;;;;;;;;;19.71;60.67;101309.28;5122108;27;1354;-81
2023/07/09 11:59:37;;;;;;;;;;;;;;;19.72;60.76;101302.72;5107366;27;2125;-82
2023/07/09 12:02:04;;;;;;;;;;;;;;;19.73;60.84;101301.63;5103047;27;2286;-81
2023/07/09 12:04:30;;;;;;;;;;;;;;;19.75;60.83;101302.19;5105080;27;2030;-78
2023/07/09 12:06:57;;;;;;;;;;;;;;;19.74;60.67;101301.38;5098450;27;3893;-80
2023/07/09 12:09:23;;;;;;;;;;;;;;;19.76;61.00;101297.53;5100033;27;4249;-77
2023/07/09 12:11:50;;;;;;;;;;;;;;;19.79;60.95;101297.84;5091369;27;4187;-81
2023/07/09 12:14:17;;;;;;;;;;;;;;;19.78;60.85;101290.72;5101853;27;4290;-80
2023/07/09 12:16:45;;;;;;;;;;;;;;;19.80;60.89;101285.84;5111535;27;5051;-78
2023/07/09 12:19:11;;;;;;;;;;;;;;;19.81;60.86;101289.38;5102801;27;4391;-78
2023/07/09 12:21:41;;;;;;;;;;;;;;;19.83;60.92;101284.50;5111854;27;4404;-79
2023/07/09 12:24:08;;;;;;;;;;;;;;;19.84;61.08;101286.13;5114138;27;4228;-80
2023/07/09 12:26:34;;;;;;;;;;;;;;;19.85;60.74;101283.13;5106556;27;4512;-79
2023/07/09 12:29:01;;;;;;;;;;;;;;;19.85;61.23;101276.84;5109210;27;4625;-79
2023/07/09 12:31:31;;;;;;;;;;;;;;;19.87;61.12;101277.41;5109799;27;4423;-78
2023/07/09 12:33:57;;;;;;;;;;;;;;;19.88;60.82;101288.09;5090918;27;4571;-78
2023/07/09 12:36:24;;;;;;;;;;;;;;;19.90;61.01;101279.59;5114537;27;4360;-79
2023/07/09 12:38:51;;;;;;;;;;;;;;;19.92;61.19;101282.91;5110222;27;4193;-78
2023/07/09 12:41:17;;;;;;;;;;;;;;;19.92;61.30;101269.25;5138293;27;4242;-80
2023/07/09 12:43:44;;;;;;;;;;;;;;;19.93;61.35;101279.88;5119150;27;4069;-79
2023/07/09 12:46:10;;;;;;;;;;;;;;;19.94;61.32;101269.78;5109637;27;4187;-78
2023/07/09 12:48:42;;;;;;;;;;;;;;;19.95;61.54;101269.53;5101477;27;3933;-79